createdAt,value
2023-05-05T00:01:47.278Z,21.36
2023-05-05T00:04:22.576Z,21.09
2023-05-05T00:06:55.098Z,21.29
2023-05-05T00:09:27.261Z,21.29
2023-05-05T00:11:59.388Z,21.22
2023-05-05T00:14:31.421Z,21.23
2023-05-05T00:17:04.215Z,21.19
2023-05-05T00:19:37.443Z,21.15
2023-05-05T00:22:09.724Z,21.10
2023-05-05T00:24:41.709Z,21.08
2023-05-05T00:27:13.871Z,21.03
2023-05-05T00:29:45.859Z,20.96
2023-05-05T00:32:17.926Z,20.92
2023-05-05T00:34:49.954Z,20.85
2023-05-05T00:37:21.948Z,20.78
2023-05-05T00:39:54.611Z,20.73
2023-05-05T00:42:27.324Z,20.73
2023-05-05T00:44:59.374Z,20.70
2023-05-05T00:47:31.379Z,20.64
2023-05-05T00:50:09.618Z,20.63
2023-05-05T00:52:41.981Z,20.61
2023-05-05T00:55:14.168Z,20.59
2023-05-05T00:57:46.735Z,20.62
2023-05-05T01:00:18.735Z,20.63
2023-05-05T01:02:52.262Z,20.61
2023-05-05T01:05:27.816Z,20.55
2023-05-05T01:08:43.953Z,20.50
2023-05-05T01:11:46.066Z,20.28
2023-05-05T01:14:30.951Z,20.55
2023-05-05T01:17:18.092Z,20.43
2023-05-05T01:20:11.895Z,20.35
2023-05-05T01:23:01.161Z,20.49
2023-05-05T01:26:07.653Z,20.45
2023-05-05T01:29:03.707Z,20.48
2023-05-05T01:31:53.877Z,20.55
2023-05-05T01:34:37.285Z,20.57
2023-05-05T01:37:22.659Z,20.31
2023-05-05T01:40:04.100Z,20.63
2023-05-05T01:42:41.146Z,20.62
2023-05-05T01:45:17.134Z,20.58
2023-05-05T01:47:49.840Z,20.61
2023-05-05T01:50:24.730Z,20.55
2023-05-05T01:52:57.824Z,20.34
2023-05-05T01:55:33.633Z,20.55
2023-05-05T01:58:08.102Z,20.45
2023-05-05T02:00:42.161Z,20.24
2023-05-05T02:03:17.406Z,20.26
2023-05-05T02:05:53.196Z,20.27
2023-05-05T02:08:27.429Z,20.32
2023-05-05T02:11:00.827Z,20.29
2023-05-05T02:13:33.638Z,20.26
2023-05-05T02:16:07.937Z,20.21
2023-05-05T02:18:42.475Z,20.17
2023-05-05T02:21:17.785Z,20.09
2023-05-05T02:23:52.017Z,19.78
2023-05-05T02:26:27.399Z,19.73
2023-05-05T02:29:22.213Z,19.93
2023-05-05T02:32:02.179Z,19.61
2023-05-05T02:34:40.979Z,19.57
2023-05-05T02:37:19.803Z,19.77
2023-05-05T02:40:04.724Z,19.71
2023-05-05T02:42:41.736Z,19.59
2023-05-05T02:45:19.742Z,19.64
2023-05-05T02:47:51.746Z,19.62
2023-05-05T02:50:23.810Z,19.57
2023-05-05T02:52:56.231Z,19.53
2023-05-05T02:55:46.851Z,19.24
2023-05-05T02:58:31.083Z,19.17
2023-05-05T03:01:24.292Z,19.17
2023-05-05T03:04:01.831Z,19.36
2023-05-05T03:06:42.632Z,19.13
2023-05-05T03:09:36.967Z,19.30
2023-05-05T03:12:17.024Z,19.27
2023-05-05T03:14:54.715Z,19.04
2023-05-05T03:17:30.884Z,18.97
2023-05-05T03:20:07.816Z,18.93
2023-05-05T03:22:40.042Z,19.16
2023-05-05T03:25:12.054Z,19.09
2023-05-05T03:27:44.101Z,19.07
2023-05-05T03:30:16.140Z,19.02
2023-05-05T03:32:48.587Z,19.03
2023-05-05T03:35:21.172Z,19.00
2023-05-05T03:37:53.166Z,18.98
2023-05-05T03:40:36.209Z,18.91
2023-05-05T03:43:12.658Z,18.62
2023-05-05T03:45:44.674Z,18.85
2023-05-05T03:48:16.674Z,18.82
2023-05-05T03:50:49.274Z,18.84
2023-05-05T03:53:21.418Z,18.82
2023-05-05T03:55:53.381Z,18.75
2023-05-05T03:58:25.395Z,18.81
2023-05-05T04:00:57.821Z,18.72
2023-05-05T04:03:29.972Z,18.43
2023-05-05T04:06:02.155Z,18.65
2023-05-05T04:08:34.149Z,18.63
2023-05-05T04:11:06.195Z,18.60
2023-05-05T04:13:38.267Z,18.53
2023-05-05T04:16:10.361Z,18.32
2023-05-05T04:18:42.471Z,18.52
2023-05-05T04:21:14.524Z,18.49
2023-05-05T04:23:46.462Z,18.52
2023-05-05T04:26:18.465Z,18.50
2023-05-05T04:28:50.553Z,18.51
2023-05-05T04:31:22.660Z,18.48
2023-05-05T04:33:55.465Z,18.46
2023-05-05T04:36:27.706Z,18.51
2023-05-05T04:38:59.800Z,18.49
2023-05-05T04:41:32.944Z,18.23
2023-05-05T04:44:05.106Z,18.48
2023-05-05T04:46:37.099Z,18.38
2023-05-05T04:49:09.451Z,18.43
2023-05-05T04:51:42.631Z,18.46
2023-05-05T04:54:14.852Z,18.37
2023-05-05T04:56:47.078Z,18.21
2023-05-05T04:59:19.146Z,18.38
2023-05-05T05:01:51.510Z,18.08
2023-05-05T05:04:25.849Z,18.41
2023-05-05T05:06:59.250Z,18.40
2023-05-05T05:09:32.327Z,18.36
2023-05-05T05:12:06.006Z,18.44
2023-05-05T05:14:40.031Z,18.23
2023-05-05T05:17:12.038Z,18.25
2023-05-05T05:19:44.053Z,18.46
2023-05-05T05:22:16.016Z,18.43
2023-05-05T05:24:48.150Z,18.38
2023-05-05T05:27:20.261Z,18.45
2023-05-05T05:29:52.242Z,18.21
2023-05-05T05:32:24.223Z,18.53
2023-05-05T05:34:56.461Z,18.58
2023-05-05T05:37:31.614Z,18.40
2023-05-05T05:40:05.418Z,18.69
2023-05-05T05:42:37.698Z,18.58
2023-05-05T05:45:10.274Z,18.91
2023-05-05T05:47:42.260Z,18.98
2023-05-05T05:50:14.596Z,18.99
2023-05-05T05:52:47.084Z,18.98
2023-05-05T05:55:19.038Z,18.87
2023-05-05T05:57:51.023Z,18.95
2023-05-05T06:00:23.168Z,18.69
2023-05-05T06:02:55.788Z,18.97
2023-05-05T06:05:28.012Z,18.96
2023-05-05T06:08:00.081Z,19.00
2023-05-05T06:10:32.376Z,18.85
2023-05-05T06:13:04.595Z,19.13
2023-05-05T06:15:36.691Z,19.01
2023-05-05T06:18:08.795Z,19.35
2023-05-05T06:20:40.836Z,19.48
2023-05-05T06:23:12.815Z,19.55
2023-05-05T06:25:44.865Z,19.53
2023-05-05T06:28:17.012Z,19.57
2023-05-05T06:30:48.963Z,19.60
2023-05-05T06:33:20.956Z,19.64
2023-05-05T06:35:53.054Z,19.50
2023-05-05T06:38:25.340Z,19.93
2023-05-05T06:40:58.677Z,20.05
2023-05-05T06:43:31.774Z,20.25
2023-05-05T06:46:03.913Z,20.39
2023-05-05T06:48:36.074Z,20.33
2023-05-05T06:51:10.097Z,20.39
2023-05-05T06:53:42.100Z,20.65
2023-05-05T06:56:14.070Z,20.74
2023-05-05T06:58:46.561Z,20.86
2023-05-05T07:01:18.660Z,20.90
2023-05-05T07:03:51.121Z,20.90
2023-05-05T07:06:23.508Z,20.95
2023-05-05T07:08:56.304Z,20.93
2023-05-05T07:11:28.495Z,21.07
2023-05-05T07:14:00.684Z,21.25
2023-05-05T07:16:34.747Z,21.29
2023-05-05T07:19:06.913Z,21.45
2023-05-05T07:21:39.764Z,21.57
2023-05-05T07:24:11.858Z,21.65
2023-05-05T07:26:44.069Z,21.87
2023-05-05T07:29:16.347Z,21.80
2023-05-05T07:31:48.583Z,21.69
2023-05-05T07:34:20.745Z,21.54
2023-05-05T07:36:52.801Z,21.39
2023-05-05T07:39:24.801Z,21.26
2023-05-05T07:41:56.782Z,21.13
2023-05-05T07:44:28.824Z,21.04
2023-05-05T07:47:00.910Z,20.97
2023-05-05T07:49:32.932Z,21.13
2023-05-05T07:52:05.056Z,21.28
2023-05-05T07:54:37.192Z,21.18
2023-05-05T07:57:09.178Z,21.30
2023-05-05T07:59:43.499Z,21.24
2023-05-05T08:02:15.606Z,21.34
2023-05-05T08:04:47.697Z,21.41
2023-05-05T08:07:19.687Z,21.20
2023-05-05T08:09:51.717Z,21.53
2023-05-05T08:12:23.726Z,21.79
2023-05-05T08:14:56.123Z,21.98
2023-05-05T08:17:28.149Z,22.26
2023-05-05T08:20:00.242Z,22.34
2023-05-05T08:22:32.272Z,22.52
2023-05-05T08:25:05.143Z,22.71
2023-05-05T08:27:42.557Z,22.84
2023-05-05T08:30:16.652Z,23.07
2023-05-05T08:32:48.728Z,23.22
2023-05-05T08:35:21.436Z,23.28
2023-05-05T08:37:53.881Z,23.16
2023-05-05T08:40:36.586Z,22.60
2023-05-05T08:43:08.574Z,22.64
2023-05-05T08:45:42.096Z,22.77
2023-05-05T08:48:19.452Z,22.69
2023-05-05T08:51:01.977Z,22.64
2023-05-05T08:53:52.499Z,22.67
2023-05-05T08:56:33.357Z,22.47
2023-05-05T08:59:05.568Z,22.63
2023-05-05T09:01:38.197Z,22.60
2023-05-05T09:04:11.066Z,22.62
2023-05-05T09:06:43.142Z,22.63
2023-05-05T09:09:15.286Z,22.56
2023-05-05T09:11:47.541Z,22.55
2023-05-05T09:14:19.661Z,22.58
2023-05-05T09:16:51.675Z,22.41
2023-05-05T09:19:23.805Z,22.80
2023-05-05T09:21:56.150Z,22.98
2023-05-05T09:24:28.132Z,22.96
2023-05-05T09:27:01.690Z,22.91
2023-05-05T09:29:33.736Z,22.87
2023-05-05T09:32:08.829Z,22.75
2023-05-05T09:34:41.365Z,22.44
2023-05-05T09:37:27.666Z,22.34
2023-05-05T09:40:01.259Z,22.49
2023-05-05T09:42:33.520Z,22.43
2023-05-05T09:45:17.686Z,22.44
2023-05-05T09:47:50.476Z,22.38
2023-05-05T09:50:23.530Z,22.42
2023-05-05T09:53:02.046Z,22.07
2023-05-05T09:55:36.019Z,22.29
2023-05-05T09:58:28.774Z,22.20
2023-05-05T10:01:01.707Z,22.12
2023-05-05T10:03:33.649Z,22.06
2023-05-05T10:06:07.897Z,22.08
2023-05-05T10:08:40.308Z,22.08
2023-05-05T10:11:13.838Z,22.10
2023-05-05T10:13:46.456Z,21.96
2023-05-05T10:16:20.395Z,21.98
2023-05-05T10:18:52.677Z,21.92
2023-05-05T10:21:26.509Z,21.86
2023-05-05T10:24:16.654Z,21.82
2023-05-05T10:26:52.074Z,21.69
2023-05-05T10:29:40.988Z,21.53
2023-05-05T10:35:24.334Z,21.44
2023-05-05T10:37:58.391Z,21.44
2023-05-05T10:40:31.843Z,21.24
2023-05-05T10:43:05.028Z,21.47
2023-05-05T10:45:38.428Z,21.46
2023-05-05T10:48:27.370Z,21.34
2023-05-05T10:51:27.713Z,21.27
2023-05-05T10:54:28.715Z,21.13
2023-05-05T10:57:03.087Z,20.89
2023-05-05T10:59:38.357Z,20.96
2023-05-05T11:02:27.189Z,20.84
2023-05-05T11:05:25.973Z,20.63
2023-05-05T11:08:27.551Z,20.39
2023-05-05T11:11:01.572Z,20.29
2023-05-05T11:13:33.707Z,20.12
2023-05-05T11:16:27.042Z,19.94
2023-05-05T11:18:59.039Z,19.69
2023-05-05T11:22:04.358Z,19.63
2023-05-05T11:24:36.872Z,19.66
2023-05-05T11:27:10.239Z,19.72
2023-05-05T11:30:04.680Z,19.70
2023-05-05T11:32:36.762Z,19.72
2023-05-05T11:35:09.017Z,19.77
2023-05-05T11:37:42.672Z,19.50
2023-05-05T11:40:31.176Z,19.80
2023-05-05T11:43:07.518Z,19.82
2023-05-05T11:45:39.731Z,19.85
2023-05-05T11:48:28.562Z,19.86
2023-05-05T11:51:03.656Z,19.92
2023-05-05T11:53:36.023Z,19.86
2023-05-05T11:56:10.228Z,19.95
2023-05-05T11:58:42.849Z,20.05
2023-05-05T12:01:17.334Z,20.04
2023-05-05T12:03:49.431Z,19.94
2023-05-05T12:06:21.678Z,19.85
2023-05-05T12:08:55.262Z,19.83
2023-05-05T12:11:27.524Z,19.80
2023-05-05T12:14:10.973Z,19.54
2023-05-05T12:17:01.467Z,19.66
2023-05-05T12:19:33.732Z,19.46
2023-05-05T12:22:05.718Z,19.52
2023-05-05T12:24:37.731Z,19.77
2023-05-05T12:27:11.850Z,19.75
2023-05-05T12:29:43.938Z,19.83
2023-05-05T12:32:28.298Z,19.78
2023-05-05T12:35:01.084Z,19.83
2023-05-05T12:37:33.383Z,19.96
2023-05-05T12:40:06.723Z,19.69
2023-05-05T12:42:40.081Z,19.89
2023-05-05T12:45:17.957Z,19.93
2023-05-05T12:47:49.979Z,19.90
2023-05-05T12:50:32.574Z,19.85
2023-05-05T12:53:04.616Z,19.89
2023-05-05T12:55:37.835Z,19.93
2023-05-05T12:58:09.919Z,19.77
2023-05-05T13:00:41.885Z,19.94
2023-05-05T13:03:20.846Z,19.79
2023-05-05T13:05:52.913Z,19.77
2023-05-05T13:08:44.935Z,19.98
2023-05-05T13:11:17.054Z,19.96
2023-05-05T13:13:49.072Z,19.71
2023-05-05T13:16:21.220Z,19.90
2023-05-05T13:18:53.724Z,19.77
2023-05-05T13:21:26.073Z,19.80
2023-05-05T13:24:08.182Z,19.81
2023-05-05T13:26:52.523Z,19.78
2023-05-05T13:29:29.497Z,19.90
2023-05-05T13:32:03.372Z,19.81
2023-05-05T13:34:35.508Z,19.69
2023-05-05T13:37:07.502Z,19.67
2023-05-05T13:39:39.646Z,19.66
2023-05-05T13:42:11.695Z,19.36
2023-05-05T13:44:43.650Z,19.48
2023-05-05T13:47:18.673Z,19.42
2023-05-05T13:49:50.692Z,19.23
2023-05-05T13:52:22.666Z,19.07
2023-05-05T13:54:55.047Z,19.11
2023-05-05T13:57:27.226Z,19.07
2023-05-05T13:59:59.171Z,19.03
2023-05-05T14:02:31.509Z,19.14
2023-05-05T14:05:03.549Z,19.10
2023-05-05T14:07:35.518Z,19.52
2023-05-05T14:10:08.677Z,19.67
2023-05-05T14:12:40.808Z,19.86
2023-05-05T14:15:12.946Z,19.96
2023-05-05T14:17:45.417Z,19.92
2023-05-05T14:20:17.447Z,19.98
2023-05-05T14:22:49.531Z,19.92
2023-05-05T14:25:21.988Z,19.91
2023-05-05T14:27:55.587Z,19.96
2023-05-05T14:30:27.616Z,19.93
2023-05-05T14:32:59.655Z,19.98
2023-05-05T14:35:31.876Z,19.98
2023-05-05T14:38:03.852Z,19.99
2023-05-05T14:40:35.940Z,19.72
2023-05-05T14:43:07.937Z,19.92
2023-05-05T14:45:40.206Z,19.85
2023-05-05T14:48:12.303Z,19.78
2023-05-05T14:50:46.374Z,19.75
2023-05-05T14:53:19.598Z,19.71
2023-05-05T14:55:51.686Z,19.55
2023-05-05T14:58:24.702Z,19.60
2023-05-05T15:00:56.760Z,19.55
2023-05-05T15:03:28.849Z,19.38
2023-05-05T15:06:00.995Z,19.64
2023-05-05T15:08:33.106Z,19.67
2023-05-05T15:11:06.335Z,19.41
2023-05-05T15:13:41.879Z,19.49
2023-05-05T15:16:14.046Z,19.90
2023-05-05T15:18:46.679Z,19.93
2023-05-05T15:21:18.888Z,19.98
2023-05-05T15:23:50.858Z,20.01
2023-05-05T15:26:23.955Z,19.81
2023-05-05T15:28:56.439Z,19.97
2023-05-05T15:31:28.551Z,20.00
2023-05-05T15:34:00.723Z,19.74
2023-05-05T15:36:32.862Z,19.92
2023-05-05T15:39:05.007Z,19.69
2023-05-05T15:41:37.078Z,19.86
2023-05-05T15:44:12.556Z,19.88
2023-05-05T15:46:44.627Z,19.69
2023-05-05T15:49:17.617Z,19.89
2023-05-05T15:51:49.619Z,19.83
2023-05-05T15:54:22.027Z,19.76
2023-05-05T15:56:54.264Z,19.83
2023-05-05T15:59:26.853Z,19.81
2023-05-05T16:01:58.828Z,19.79
2023-05-05T16:04:31.088Z,19.76
2023-05-05T16:07:03.391Z,19.68
2023-05-05T16:09:35.458Z,19.71
2023-05-05T16:12:07.412Z,19.64
2023-05-05T16:14:39.422Z,19.68
2023-05-05T16:17:11.572Z,19.69
2023-05-05T16:19:43.663Z,19.69
2023-05-05T16:22:16.394Z,19.63
2023-05-05T16:24:48.377Z,19.73
2023-05-05T16:27:20.522Z,19.62
2023-05-05T16:29:53.511Z,19.67
2023-05-05T16:32:25.557Z,19.76
2023-05-05T16:34:57.706Z,19.80
2023-05-05T16:37:29.706Z,19.88
2023-05-05T16:40:04.379Z,19.97
2023-05-05T16:42:36.311Z,20.01
2023-05-05T16:45:09.433Z,20.10
2023-05-05T16:47:41.736Z,20.11
2023-05-05T16:50:13.793Z,20.14
2023-05-05T16:52:46.094Z,20.15
2023-05-05T16:55:18.476Z,19.95
2023-05-05T16:57:50.459Z,20.09
2023-05-05T17:00:22.580Z,20.16
2023-05-05T17:02:55.158Z,20.15
2023-05-05T17:05:27.340Z,20.03
2023-05-05T17:08:00.601Z,20.07
2023-05-05T17:10:32.630Z,20.05
2023-05-05T17:13:04.767Z,20.04
2023-05-05T17:15:37.649Z,19.97
2023-05-05T17:18:09.832Z,19.96
2023-05-05T17:20:42.788Z,19.96
2023-05-05T17:23:16.293Z,19.98
2023-05-05T17:25:48.310Z,19.71
2023-05-05T17:28:20.260Z,19.92
2023-05-05T17:30:52.323Z,19.95
2023-05-05T17:33:24.333Z,19.93
2023-05-05T17:35:56.646Z,19.90
2023-05-05T17:38:28.623Z,19.87
2023-05-05T17:41:00.614Z,19.61
2023-05-05T17:43:32.578Z,19.78
2023-05-05T17:46:04.742Z,19.76
2023-05-05T17:48:36.776Z,19.74
2023-05-05T17:51:08.800Z,19.70
2023-05-05T17:53:40.889Z,19.71
2023-05-05T17:56:12.885Z,19.50
2023-05-05T17:58:44.922Z,19.42
2023-05-05T18:01:25.206Z,19.67
2023-05-05T18:03:57.508Z,19.63
2023-05-05T18:06:29.613Z,19.38
2023-05-05T18:09:01.602Z,19.56
2023-05-05T18:11:34.055Z,19.55
2023-05-05T18:14:06.134Z,19.50
2023-05-05T18:16:38.191Z,19.49
2023-05-05T18:19:10.476Z,19.46
2023-05-05T18:21:42.542Z,19.42
2023-05-05T18:24:20.409Z,19.38
2023-05-05T18:26:53.123Z,19.38
2023-05-05T18:29:25.487Z,19.38
2023-05-05T18:31:57.461Z,19.14
2023-05-05T18:34:29.602Z,19.35
2023-05-05T18:37:02.357Z,19.12
2023-05-05T18:39:35.606Z,19.28
2023-05-05T18:42:08.289Z,19.18
2023-05-05T18:44:40.354Z,19.21
2023-05-05T18:47:12.373Z,18.97
2023-05-05T18:49:45.505Z,19.13
2023-05-05T18:52:17.507Z,19.11
2023-05-05T18:54:49.515Z,19.03
2023-05-05T18:57:22.091Z,19.01
2023-05-05T18:59:54.263Z,19.02
2023-05-05T19:02:26.951Z,18.76
2023-05-05T19:04:59.016Z,18.96
2023-05-05T19:07:35.519Z,18.95
2023-05-05T19:10:09.273Z,18.90
2023-05-05T19:12:41.525Z,18.86
2023-05-05T19:15:13.597Z,18.83
2023-05-05T19:17:47.547Z,18.56
2023-05-05T19:20:20.118Z,18.76
2023-05-05T19:22:52.131Z,18.98
2023-05-05T19:25:24.111Z,18.71
2023-05-05T19:27:56.971Z,18.62
2023-05-05T19:30:29.086Z,18.57
2023-05-05T19:33:01.147Z,18.53
2023-05-05T19:35:35.058Z,18.51
2023-05-05T19:38:07.180Z,18.48
2023-05-05T19:40:40.204Z,18.47
2023-05-05T19:43:12.168Z,18.44
2023-05-05T19:45:44.264Z,18.42
2023-05-05T19:48:16.539Z,18.15
2023-05-05T19:50:48.744Z,18.30
2023-05-05T19:53:20.778Z,18.30
2023-05-05T19:55:52.784Z,18.19
2023-05-05T19:58:24.769Z,18.23
2023-05-05T20:00:56.799Z,18.21
2023-05-05T20:03:28.904Z,18.21
2023-05-05T20:06:00.923Z,18.12
2023-05-05T20:08:34.108Z,18.12
2023-05-05T20:11:06.099Z,18.08
2023-05-05T20:13:39.077Z,17.75
2023-05-05T20:16:11.889Z,18.01
2023-05-05T20:18:44.448Z,17.94
2023-05-05T20:21:17.367Z,17.86
2023-05-05T20:23:49.543Z,17.88
2023-05-05T20:26:22.150Z,17.82
2023-05-05T20:28:54.640Z,17.78
2023-05-05T20:31:26.944Z,17.72
2023-05-05T20:33:58.904Z,17.69
2023-05-05T20:36:30.922Z,17.69
2023-05-05T20:39:02.995Z,17.69
2023-05-05T20:41:36.335Z,17.69
2023-05-05T20:44:11.348Z,17.67
2023-05-05T20:46:43.370Z,17.64
2023-05-05T20:49:15.504Z,17.64
2023-05-05T20:51:47.871Z,17.63
2023-05-05T20:54:19.889Z,17.66
2023-05-05T20:56:53.172Z,17.64
2023-05-05T20:59:27.931Z,17.36
2023-05-05T21:02:00.047Z,17.57
2023-05-05T21:04:32.450Z,17.61
2023-05-05T21:07:05.232Z,17.59
2023-05-05T21:09:37.520Z,17.63
2023-05-05T21:12:09.576Z,17.57
2023-05-05T21:14:45.326Z,17.44
2023-05-05T21:17:17.413Z,17.56
2023-05-05T21:19:49.583Z,17.53
2023-05-05T21:22:22.107Z,17.53
2023-05-05T21:24:55.446Z,17.50
2023-05-05T21:27:27.477Z,17.49
2023-05-05T21:29:59.479Z,17.43
2023-05-05T21:32:31.629Z,17.18
2023-05-05T21:35:06.043Z,17.47
2023-05-05T21:37:39.158Z,17.46
2023-05-05T21:40:14.126Z,17.45
2023-05-05T21:42:46.218Z,17.48
2023-05-05T21:45:18.468Z,17.47
2023-05-05T21:47:50.887Z,17.21
2023-05-05T21:50:22.942Z,17.43
2023-05-05T21:52:55.303Z,17.40
2023-05-05T21:55:27.719Z,17.40
2023-05-05T21:57:59.666Z,17.44
2023-05-05T22:00:31.735Z,17.49
2023-05-05T22:03:04.640Z,17.48
2023-05-05T22:05:36.738Z,17.50
2023-05-05T22:08:08.808Z,17.49
2023-05-05T22:10:40.807Z,17.26
2023-05-05T22:13:14.166Z,17.50
2023-05-05T22:15:47.474Z,17.49
2023-05-05T22:18:19.703Z,17.48
2023-05-05T22:20:52.255Z,17.48
2023-05-05T22:23:24.436Z,17.27
2023-05-05T22:25:57.266Z,17.20
2023-05-05T22:28:29.920Z,17.44
2023-05-05T22:31:02.407Z,17.45
2023-05-05T22:33:36.248Z,17.37
2023-05-05T22:36:09.038Z,17.40
2023-05-05T22:38:41.065Z,17.41
2023-05-05T22:41:13.187Z,17.40
2023-05-05T22:43:45.277Z,17.14
2023-05-05T22:46:17.320Z,17.26
2023-05-05T22:48:49.330Z,17.37
2023-05-05T22:51:21.694Z,17.33
2023-05-05T22:53:53.695Z,17.29
2023-05-05T22:56:25.800Z,17.28
2023-05-05T22:58:57.916Z,17.25
2023-05-05T23:01:30.547Z,17.26
2023-05-05T23:04:02.749Z,17.24
2023-05-05T23:06:34.868Z,17.25
2023-05-05T23:09:07.284Z,17.24
2023-05-05T23:11:39.345Z,17.23
2023-05-05T23:14:11.638Z,17.25
2023-05-05T23:16:43.720Z,17.00
2023-05-05T23:19:16.104Z,17.24
2023-05-05T23:21:53.154Z,17.17
2023-05-05T23:24:26.674Z,17.22
2023-05-05T23:27:03.833Z,17.21
2023-05-05T23:29:35.843Z,16.95
2023-05-05T23:32:09.153Z,17.17
2023-05-05T23:34:41.210Z,17.16
2023-05-05T23:37:14.829Z,17.18
2023-05-05T23:39:46.949Z,17.18
2023-05-05T23:42:18.898Z,17.16
2023-05-05T23:44:50.970Z,17.13
2023-05-05T23:47:22.935Z,16.92
2023-05-05T23:49:55.165Z,17.11
2023-05-05T23:52:27.226Z,17.11
2023-05-05T23:54:59.195Z,17.08
2023-05-05T23:57:31.176Z,17.02
